Time;durP1;ratioP1;P1;durP2;ratioP2;P2;SDS_P1;SDS_P2;PMS_P1;PMS_P2;Temp;Humidity;BMP_temperature;BMP_pressure;BME280_temperature;BME280_humidity;BME280_pressure;Samples;Min_cycle;Max_cycle;Signal;HPM_P1;HPM_P2
2021/12/12 00:02:49;;;;;;;47.53;23.70;;;0.20;99.90;;;;;;5101811;28;20667;-78
2021/12/12 00:05:20;;;;;;;51.13;22.53;;;0.20;99.90;;;;;;5080443;28;20182;-80
2021/12/12 00:07:46;;;;;;;47.43;25.00;;;0.10;99.90;;;;;;5097583;27;20636;-74
2021/12/12 00:10:18;;;;;;;47.37;24.73;;;0.10;99.90;;;;;;5099181;28;20203;-74
2021/12/12 00:12:47;;;;;;;48.80;24.43;;;0.10;99.90;;;;;;5106133;27;20169;-73
2021/12/12 00:15:15;;;;;;;44.07;21.93;;;0.00;99.90;;;;;;5133426;27;20650;-73
2021/12/12 00:17:41;;;;;;;45.27;22.63;;;0.00;99.90;;;;;;5133611;27;20172;-73
2021/12/12 00:20:09;;;;;;;44.03;23.10;;;0.00;99.90;;;;;;5099762;28;20198;-73
2021/12/12 00:22:34;;;;;;;43.63;22.17;;;0.00;99.90;;;;;;5113385;28;20198;-73
2021/12/12 00:25:00;;;;;;;52.17;24.43;;;0.10;99.90;;;;;;5113433;28;20182;-72
2021/12/12 00:27:27;;;;;;;46.83;23.43;;;0.10;99.90;;;;;;5113772;28;20253;-73
2021/12/12 00:29:53;;;;;;;47.33;24.23;;;0.20;99.90;;;;;;5094662;28;20338;-73
2021/12/12 00:32:23;;;;;;;41.43;22.47;;;0.20;99.90;;;;;;5113587;28;20620;-74
2021/12/12 00:34:53;;;;;;;42.33;23.03;;;0.30;99.90;;;;;;5095385;28;20180;-73
2021/12/12 00:37:19;;;;;;;44.43;23.80;;;0.30;99.90;;;;;;5095915;28;20199;-72
2021/12/12 00:39:52;;;;;;;47.77;23.23;;;0.30;99.90;;;;;;5095044;28;20275;-73
2021/12/12 00:42:21;;;;;;;46.70;22.63;;;0.30;99.90;;;;;;5111587;28;20196;-72
2021/12/12 00:44:51;;;;;;;45.50;22.43;;;0.30;99.90;;;;;;5112690;28;20174;-73
2021/12/12 00:47:17;;;;;;;41.17;21.83;;;0.30;99.90;;;;;;5094033;28;20172;-72
2021/12/12 00:49:43;;;;;;;42.73;22.27;;;0.40;99.90;;;;;;5111926;28;20204;-74
2021/12/12 00:52:12;;;;;;;38.90;22.47;;;0.40;99.90;;;;;;5111891;28;20260;-75
2021/12/12 00:54:40;;;;;;;44.27;23.30;;;0.40;99.90;;;;;;5112379;28;20178;-74
2021/12/12 00:57:08;;;;;;;41.27;21.07;;;0.40;99.90;;;;;;5112157;28;20183;-73
2021/12/12 00:59:35;;;;;;;38.20;21.90;;;0.50;99.90;;;;;;5093833;28;20203;-75
2021/12/12 01:02:04;;;;;;;41.07;21.93;;;0.50;99.90;;;;;;5093766;28;20200;-73
2021/12/12 01:04:37;;;;;;;43.73;21.50;;;0.50;99.90;;;;;;5112063;28;20190;-74
2021/12/12 01:07:08;;;;;;;42.90;21.60;;;0.50;99.90;;;;;;5112093;28;20181;-74
2021/12/12 01:09:40;;;;;;;37.20;20.53;;;0.50;99.90;;;;;;5093599;28;20191;-72
2021/12/12 01:12:10;;;;;;;37.23;21.47;;;0.50;99.90;;;;;;5093666;28;20178;-75
2021/12/12 01:14:41;;;;;;;37.37;20.67;;;0.50;99.90;;;;;;5112099;28;20167;-74
2021/12/12 01:17:17;;;;;;;39.57;21.07;;;0.50;99.90;;;;;;5093370;28;20179;-75
2021/12/12 01:19:57;;;;;;;39.90;21.27;;;0.40;99.90;;;;;;5093348;28;20283;-74
2021/12/12 01:22:30;;;;;;;40.00;21.30;;;0.40;99.90;;;;;;5111796;28;20196;-75
2021/12/12 01:25:05;;;;;;;40.27;21.53;;;0.40;99.90;;;;;;5093768;28;20172;-74
2021/12/12 01:27:31;;;;;;;36.20;20.90;;;0.30;99.90;;;;;;5092840;28;20222;-74
2021/12/12 01:29:56;;;;;;;41.10;20.60;;;0.30;99.90;;;;;;5093331;28;20230;-75
2021/12/12 01:32:30;;;;;;;40.80;21.73;;;0.30;99.90;;;;;;5111710;28;20223;-74
2021/12/12 01:34:58;;;;;;;39.73;20.77;;;0.20;99.90;;;;;;5111950;28;20251;-76
2021/12/12 01:40:05;;;;;;;40.50;21.60;;;0.20;99.90;;;;;;5111496;28;20199;-73
2021/12/12 01:42:39;;;;;;;41.57;21.63;;;0.20;99.90;;;;;;5093111;28;20206;-75
2021/12/12 01:45:19;;;;;;;37.87;20.57;;;0.10;99.90;;;;;;5093418;28;20619;-75
2021/12/12 01:47:58;;;;;;;44.20;21.70;;;0.20;99.90;;;;;;5111363;28;20207;-76
2021/12/12 01:50:31;;;;;;;38.53;22.27;;;0.10;99.90;;;;;;5092936;28;20201;-76
2021/12/12 01:53:00;;;;;;;39.90;21.87;;;0.10;99.90;;;;;;5111553;28;20180;-75
2021/12/12 01:55:37;;;;;;;40.47;21.10;;;0.10;99.90;;;;;;5111798;28;20719;-74
2021/12/12 01:58:09;;;;;;;37.53;20.53;;;0.10;99.90;;;;;;5111140;28;20279;-76
2021/12/12 02:00:42;;;;;;;35.00;21.13;;;0.10;99.90;;;;;;5114329;28;20183;-76
2021/12/12 02:03:11;;;;;;;38.17;21.43;;;0.20;99.90;;;;;;5113834;28;21011;-78
2021/12/12 02:05:37;;;;;;;34.83;19.37;;;0.30;99.90;;;;;;5111542;28;20251;-74
2021/12/12 02:08:07;;;;;;;34.37;19.30;;;0.20;99.90;;;;;;5111291;28;20180;-77
2021/12/12 02:10:38;;;;;;;35.80;19.50;;;0.20;99.90;;;;;;5111196;28;20311;-77
2021/12/12 02:13:07;;;;;;;35.83;20.47;;;0.10;99.90;;;;;;5111964;28;20225;-75
2021/12/12 02:15:36;;;;;;;36.30;20.00;;;0.10;99.90;;;;;;5112650;28;20206;-75
2021/12/12 02:18:07;;;;;;;34.63;20.20;;;0.10;99.90;;;;;;5111869;28;20193;-72
2021/12/12 02:20:42;;;;;;;37.70;19.87;;;0.10;99.90;;;;;;5111361;28;20166;-75
2021/12/12 02:23:22;;;;;;;36.60;20.90;;;0.00;99.90;;;;;;5112170;28;20288;-78
2021/12/12 02:36:58;;;;;;;35.50;20.50;;;0.00;99.90;;;;;;5102582;28;20680;-72
2021/12/12 02:39:24;;;;;;;36.03;19.87;;;0.00;99.90;;;;;;5090734;28;20195;-71
2021/12/12 02:41:54;;;;;;;33.03;18.80;;;0.10;99.90;;;;;;5097726;28;20554;-73
2021/12/12 02:44:23;;;;;;;35.47;18.53;;;0.00;99.90;;;;;;5110566;28;20167;-73
2021/12/12 02:46:53;;;;;;;37.20;20.03;;;0.00;99.90;;;;;;5111720;28;20179;-73
2021/12/12 02:52:07;;;;;;;32.47;19.50;;;0.10;99.90;;;;;;5100458;28;20594;-75
2021/12/12 02:54:34;;;;;;;32.27;18.33;;;0.10;99.90;;;;;;5104336;28;20653;-75
2021/12/12 02:56:59;;;;;;;32.83;18.87;;;0.10;99.90;;;;;;5083472;28;20185;-72
2021/12/12 02:59:25;;;;;;;35.63;19.53;;;0.10;99.90;;;;;;5080637;28;20198;-72
2021/12/12 03:02:01;;;;;;;33.53;19.73;;;0.10;99.90;;;;;;5123175;28;20557;-73
2021/12/12 03:04:27;;;;;;;37.13;19.67;;;0.00;99.90;;;;;;5119066;27;20218;-72
2021/12/12 03:06:54;;;;;;;33.33;20.30;;;0.00;99.90;;;;;;5096469;27;20168;-72
2021/12/12 03:09:21;;;;;;;35.43;18.50;;;0.00;99.90;;;;;;5115208;27;20283;-73
2021/12/12 03:11:50;;;;;;;34.30;20.07;;;0.00;99.90;;;;;;5114835;27;20413;-73
2021/12/12 03:14:17;;;;;;;33.83;20.13;;;0.00;99.90;;;;;;5115005;28;20631;-73
2021/12/12 03:16:42;;;;;;;35.57;19.40;;;0.10;99.90;;;;;;5114825;28;20172;-73
2021/12/12 03:19:08;;;;;;;33.27;19.53;;;0.10;99.90;;;;;;5096326;28;20204;-73
2021/12/12 03:21:42;;;;;;;37.67;20.87;;;0.00;99.90;;;;;;5114530;28;20194;-73
2021/12/12 03:24:15;;;;;;;33.87;19.40;;;0.00;99.90;;;;;;5114824;28;20172;-73
2021/12/12 03:26:43;;;;;;;36.47;19.90;;;0.00;99.90;;;;;;5096286;28;20173;-73
2021/12/12 03:29:09;;;;;;;34.83;20.20;;;0.00;99.90;;;;;;5121916;27;20227;-72
2021/12/12 03:31:40;;;;;;;36.07;20.83;;;0.00;99.90;;;;;;5133472;27;20270;-73
2021/12/12 03:34:09;;;;;;;32.30;18.17;;;0.00;99.90;;;;;;5135218;27;20577;-73
2021/12/12 03:36:36;;;;;;;35.00;20.67;;;0.00;99.90;;;;;;5116360;27;20205;-73
2021/12/12 03:39:08;;;;;;;33.47;19.90;;;0.00;99.90;;;;;;5116325;27;20220;-73
2021/12/12 03:41:36;;;;;;;34.43;18.93;;;0.10;99.90;;;;;;5134876;27;20197;-72
2021/12/12 03:44:06;;;;;;;33.43;18.43;;;0.10;99.90;;;;;;5135015;27;20243;-73
2021/12/12 03:46:32;;;;;;;37.57;19.70;;;0.10;99.90;;;;;;5134700;27;20209;-73
2021/12/12 03:48:58;;;;;;;35.20;19.00;;;0.10;99.90;;;;;;5115850;27;20333;-72
2021/12/12 03:51:27;;;;;;;34.63;20.23;;;0.20;99.90;;;;;;5132689;22;20702;-74
2021/12/12 03:53:53;;;;;;;35.43;19.90;;;0.20;99.90;;;;;;5076833;28;20227;-74
2021/12/12 03:56:20;;;;;;;33.27;18.97;;;0.20;99.90;;;;;;5095119;28;20166;-74
2021/12/12 03:58:47;;;;;;;34.47;19.40;;;0.30;99.90;;;;;;5075325;28;20236;-74
2021/12/12 04:01:31;;;;;;;34.50;19.03;;;0.30;99.90;;;;;;5106481;28;20655;-74
2021/12/12 04:04:07;;;;;;;36.17;19.63;;;0.30;99.90;;;;;;5115851;28;20165;-74
2021/12/12 04:06:32;;;;;;;34.20;19.33;;;0.30;99.90;;;;;;5093223;28;20201;-74
2021/12/12 04:08:59;;;;;;;33.80;19.47;;;0.30;99.90;;;;;;5093478;28;20184;-74
2021/12/12 04:11:32;;;;;;;32.17;18.33;;;0.30;99.90;;;;;;5110334;28;20215;-74
2021/12/12 04:13:58;;;;;;;28.23;17.73;;;0.30;99.90;;;;;;5093156;28;20595;-74
2021/12/12 04:16:27;;;;;;;34.33;18.60;;;0.30;99.90;;;;;;5108938;28;20641;-74
2021/12/12 04:18:53;;;;;;;35.47;18.70;;;0.30;99.90;;;;;;5094635;28;20822;-74
2021/12/12 04:21:21;;;;;;;34.17;19.43;;;0.40;99.90;;;;;;5091390;28;20240;-74
2021/12/12 04:23:48;;;;;;;35.77;18.77;;;0.40;99.90;;;;;;5112385;28;20165;-74
2021/12/12 04:26:23;;;;;;;34.10;18.87;;;0.40;99.90;;;;;;5091829;28;20174;-74
2021/12/12 04:29:03;;;;;;;36.20;19.17;;;0.40;99.90;;;;;;5093843;28;20565;-74
2021/12/12 04:31:29;;;;;;;30.73;17.53;;;0.40;99.90;;;;;;5091825;28;20247;-75
2021/12/12 04:33:56;;;;;;;30.57;18.57;;;0.50;99.90;;;;;;5113027;28;20162;-74
2021/12/12 04:36:28;;;;;;;33.00;18.30;;;0.50;99.90;;;;;;5091724;28;20197;-74
2021/12/12 04:39:04;;;;;;;29.57;18.03;;;0.60;99.90;;;;;;5094344;28;20200;-74
2021/12/12 04:41:31;;;;;;;32.63;17.97;;;0.60;99.90;;;;;;5113119;28;20655;-74
2021/12/12 04:43:57;;;;;;;35.43;18.87;;;0.70;99.90;;;;;;5095512;28;20181;-74
2021/12/12 04:46:36;;;;;;;32.20;18.13;;;0.70;99.90;;;;;;5091492;28;20236;-74
2021/12/12 04:51:52;;;;;;;32.97;18.93;;;0.80;99.90;;;;;;5111597;28;20348;-74
2021/12/12 04:54:33;;;;;;;34.17;19.03;;;0.80;99.90;;;;;;5091676;28;20168;-74
2021/12/12 04:57:07;;;;;;;31.33;18.70;;;0.80;99.90;;;;;;5091249;28;20168;-74
2021/12/12 04:59:44;;;;;;;29.37;17.20;;;0.90;99.90;;;;;;5109567;28;20164;-74
2021/12/12 05:02:15;;;;;;;31.63;17.27;;;1.00;99.90;;;;;;5091103;28;20669;-74
2021/12/12 05:04:53;;;;;;;33.90;17.33;;;1.00;99.90;;;;;;5092288;28;20198;-75
2021/12/12 05:07:29;;;;;;;29.80;16.83;;;1.10;99.90;;;;;;5112814;28;20578;-75
2021/12/12 05:10:02;;;;;;;32.13;18.13;;;1.10;99.90;;;;;;5094091;28;20190;-75
2021/12/12 05:12:36;;;;;;;32.23;18.77;;;1.00;99.90;;;;;;5113359;28;20625;-75
2021/12/12 05:15:12;;;;;;;32.40;17.53;;;1.10;99.90;;;;;;5091829;28;20241;-75
2021/12/12 05:17:47;;;;;;;32.07;18.30;;;1.20;99.90;;;;;;5110075;28;20657;-74
2021/12/12 05:20:18;;;;;;;33.57;17.87;;;1.20;99.90;;;;;;5090891;28;20279;-75
2021/12/12 05:22:48;;;;;;;33.20;17.73;;;1.20;99.90;;;;;;5092382;28;20209;-75
2021/12/12 05:25:17;;;;;;;36.00;19.23;;;1.20;99.90;;;;;;5090308;28;20231;-74
2021/12/12 05:27:46;;;;;;;34.53;19.70;;;1.20;99.90;;;;;;5109865;28;20593;-74
2021/12/12 05:30:15;;;;;;;33.10;18.97;;;1.20;99.90;;;;;;5091053;28;20221;-75
2021/12/12 05:32:41;;;;;;;40.43;19.93;;;1.20;99.90;;;;;;5092320;28;20652;-74
2021/12/12 05:35:10;;;;;;;35.73;20.30;;;1.10;99.90;;;;;;5114109;28;20166;-75
2021/12/12 05:37:37;;;;;;;39.00;19.50;;;1.10;99.90;;;;;;5114271;28;20230;-75
2021/12/12 05:40:06;;;;;;;35.57;20.27;;;1.10;99.90;;;;;;5092222;28;20280;-75
2021/12/12 05:42:32;;;;;;;36.33;18.53;;;1.10;99.90;;;;;;5090833;28;20200;-75
2021/12/12 05:44:59;;;;;;;34.97;19.73;;;1.10;99.90;;;;;;5112828;28;20177;-75
2021/12/12 05:47:26;;;;;;;37.97;19.33;;;1.10;99.90;;;;;;5112186;28;20200;-73
2021/12/12 05:49:51;;;;;;;41.83;20.53;;;1.10;99.90;;;;;;5093175;28;20211;-73
2021/12/12 05:52:20;;;;;;;30.37;17.90;;;1.00;99.90;;;;;;5090386;28;20217;-73
2021/12/12 05:54:47;;;;;;;32.60;18.63;;;1.00;99.90;;;;;;5092926;28;20213;-74
2021/12/12 05:57:16;;;;;;;33.43;18.30;;;1.00;99.90;;;;;;5114865;28;20186;-74
2021/12/12 05:59:42;;;;;;;31.50;19.03;;;0.90;99.90;;;;;;5113996;28;20252;-74
2021/12/12 06:02:08;;;;;;;34.33;18.27;;;0.90;99.90;;;;;;5092104;28;20326;-74
2021/12/12 06:04:35;;;;;;;28.20;17.73;;;0.90;99.90;;;;;;5093327;28;20291;-74
2021/12/12 06:07:06;;;;;;;32.90;18.50;;;0.80;99.90;;;;;;5091444;28;20263;-74
2021/12/12 06:09:32;;;;;;;33.13;17.33;;;0.80;99.90;;;;;;5091798;28;20177;-74
2021/12/12 06:11:59;;;;;;;33.77;18.27;;;0.80;99.90;;;;;;5104211;28;20230;-74
2021/12/12 06:14:25;;;;;;;34.83;19.33;;;0.70;99.90;;;;;;5090793;28;20698;-74
2021/12/12 06:16:51;;;;;;;31.50;18.67;;;0.60;99.90;;;;;;5093243;28;20210;-74
2021/12/12 06:19:20;;;;;;;30.73;17.30;;;0.60;99.90;;;;;;5098787;28;20188;-74
2021/12/12 06:21:50;;;;;;;34.23;19.80;;;0.60;99.90;;;;;;5092380;28;20593;-74
2021/12/12 06:24:16;;;;;;;33.73;18.33;;;0.70;99.90;;;;;;5128830;28;20208;-74
2021/12/12 06:26:42;;;;;;;33.63;19.30;;;0.60;99.90;;;;;;5112504;28;20220;-74
2021/12/12 06:29:08;;;;;;;26.63;17.20;;;0.60;99.90;;;;;;5128910;28;20183;-74
2021/12/12 06:31:42;;;;;;;27.10;17.23;;;0.70;99.90;;;;;;5100396;28;20208;-75
2021/12/12 06:34:08;;;;;;;30.20;17.70;;;0.70;99.90;;;;;;5110857;28;20215;-74
2021/12/12 06:36:35;;;;;;;31.03;17.70;;;0.60;99.90;;;;;;5128985;28;20253;-74
2021/12/12 06:39:03;;;;;;;30.97;18.50;;;0.60;99.90;;;;;;5132646;27;20187;-74
2021/12/12 06:41:28;;;;;;;35.20;18.40;;;0.60;99.90;;;;;;5135639;27;20667;-74
2021/12/12 06:43:56;;;;;;;30.43;17.77;;;0.70;99.90;;;;;;5136262;27;20167;-75
2021/12/12 06:46:23;;;;;;;30.33;18.20;;;0.70;99.90;;;;;;5136386;27;20164;-74
2021/12/12 06:48:50;;;;;;;31.43;18.17;;;0.70;99.90;;;;;;5135831;27;20168;-74
2021/12/12 06:51:15;;;;;;;30.07;17.77;;;0.70;99.90;;;;;;5135718;27;20204;-74
2021/12/12 06:53:44;;;;;;;32.33;17.80;;;0.70;99.90;;;;;;5136032;27;20176;-75
2021/12/12 06:56:11;;;;;;;35.13;18.87;;;0.60;99.90;;;;;;5136220;27;20270;-74
2021/12/12 06:58:37;;;;;;;32.90;18.33;;;0.60;99.90;;;;;;5099945;28;20179;-74
2021/12/12 07:01:15;;;;;;;34.63;18.27;;;0.60;99.90;;;;;;5130660;27;20564;-74
2021/12/12 07:03:42;;;;;;;31.83;17.93;;;0.50;99.90;;;;;;5136560;27;20159;-74
2021/12/12 07:06:08;;;;;;;32.77;18.20;;;0.50;99.90;;;;;;5114242;28;20633;-73
2021/12/12 07:08:34;;;;;;;29.20;18.23;;;0.50;99.90;;;;;;5132665;27;20181;-74
2021/12/12 07:11:00;;;;;;;31.00;17.63;;;0.60;99.90;;;;;;5136330;27;20183;-74
2021/12/12 07:13:26;;;;;;;30.33;18.20;;;0.60;99.90;;;;;;5114606;28;20178;-74
2021/12/12 07:15:55;;;;;;;34.63;19.77;;;0.70;99.90;;;;;;5135770;27;20189;-74
2021/12/12 07:18:23;;;;;;;36.73;19.60;;;0.60;99.90;;;;;;5114801;28;20169;-74
2021/12/12 07:20:52;;;;;;;37.93;18.23;;;0.60;99.90;;;;;;5110611;28;20205;-74
2021/12/12 07:23:18;;;;;;;32.80;18.93;;;0.60;99.90;;;;;;5099972;28;20213;-74
2021/12/12 07:25:45;;;;;;;33.60;19.23;;;0.70;99.90;;;;;;5125130;27;20169;-74
2021/12/12 07:28:12;;;;;;;35.17;19.13;;;0.70;99.90;;;;;;5136399;27;20613;-74
2021/12/12 07:30:38;;;;;;;32.87;18.57;;;0.80;99.90;;;;;;5115287;28;20196;-74
2021/12/12 07:33:05;;;;;;;31.80;17.80;;;0.80;99.90;;;;;;5136413;27;20527;-74
2021/12/12 07:35:39;;;;;;;37.63;19.10;;;0.80;99.90;;;;;;5132499;27;20199;-75
2021/12/12 07:38:11;;;;;;;35.27;19.00;;;0.80;99.90;;;;;;5108331;28;20829;-73
2021/12/12 07:40:37;;;;;;;34.90;18.10;;;0.80;99.90;;;;;;5115074;27;20192;-74
2021/12/12 07:43:04;;;;;;;32.13;18.20;;;0.80;99.90;;;;;;5115093;28;20239;-73
2021/12/12 07:45:31;;;;;;;31.17;18.27;;;0.80;99.90;;;;;;5132618;27;20168;-73
2021/12/12 07:47:57;;;;;;;32.53;17.80;;;0.90;99.90;;;;;;5129216;28;20220;-74
2021/12/12 07:50:27;;;;;;;33.70;19.10;;;0.80;99.90;;;;;;5136347;28;20203;-74
2021/12/12 07:52:53;;;;;;;33.77;18.63;;;0.90;99.90;;;;;;5138113;27;20169;-74
2021/12/12 07:55:19;;;;;;;35.57;18.53;;;0.90;99.90;;;;;;5140581;27;20163;-75
2021/12/12 07:57:45;;;;;;;35.40;19.40;;;1.00;99.90;;;;;;5115775;27;20168;-75
2021/12/12 08:00:16;;;;;;;29.87;18.27;;;1.00;99.90;;;;;;5135035;27;20170;-75
2021/12/12 08:02:43;;;;;;;35.67;20.03;;;0.90;99.90;;;;;;5135154;27;20579;-75
2021/12/12 08:05:12;;;;;;;35.37;18.93;;;0.90;99.90;;;;;;5112655;28;20621;-75
2021/12/12 08:07:40;;;;;;;35.97;19.87;;;1.00;99.90;;;;;;5113651;27;20241;-73
2021/12/12 08:10:08;;;;;;;35.67;18.47;;;1.00;99.90;;;;;;5114900;28;20169;-75
2021/12/12 08:12:34;;;;;;;32.33;17.53;;;1.00;99.90;;;;;;5131526;27;20172;-75
2021/12/12 08:15:04;;;;;;;35.27;19.33;;;1.00;99.90;;;;;;5112907;28;20850;-74
2021/12/12 08:17:30;;;;;;;32.43;19.57;;;1.00;99.90;;;;;;5130080;27;20173;-74
2021/12/12 08:19:58;;;;;;;36.93;18.53;;;1.00;99.90;;;;;;5134155;27;20179;-74
2021/12/12 08:22:25;;;;;;;36.00;18.77;;;0.90;99.90;;;;;;5113074;28;20224;-74
2021/12/12 08:24:51;;;;;;;38.97;20.67;;;1.00;99.90;;;;;;5115767;27;20166;-74
2021/12/12 08:27:17;;;;;;;36.43;19.23;;;1.10;99.90;;;;;;5134174;27;20306;-75
2021/12/12 08:29:43;;;;;;;39.10;19.40;;;1.20;99.90;;;;;;5133774;27;20228;-74
2021/12/12 08:32:11;;;;;;;38.20;18.70;;;1.20;99.90;;;;;;5124889;27;20695;-74
2021/12/12 08:34:38;;;;;;;41.93;20.67;;;1.30;99.90;;;;;;5125625;27;20218;-75
2021/12/12 08:37:05;;;;;;;34.53;18.30;;;1.20;99.90;;;;;;5133845;27;20174;-75
2021/12/12 08:39:31;;;;;;;37.63;20.30;;;1.40;99.90;;;;;;5134131;27;20188;-75
2021/12/12 08:41:59;;;;;;;39.03;20.17;;;1.40;99.90;;;;;;5133694;27;20235;-74
2021/12/12 08:44:26;;;;;;;44.23;21.97;;;1.50;99.90;;;;;;5134234;27;20199;-74
2021/12/12 08:46:54;;;;;;;32.40;19.90;;;1.50;99.90;;;;;;5118160;27;20302;-75
2021/12/12 08:49:23;;;;;;;39.10;20.77;;;1.60;99.90;;;;;;5133875;27;20165;-75
2021/12/12 08:51:57;;;;;;;35.77;19.57;;;1.50;99.90;;;;;;5133639;27;20202;-75
2021/12/12 08:54:27;;;;;;;37.70;20.10;;;1.60;99.90;;;;;;5112194;28;20178;-75
2021/12/12 08:57:02;;;;;;;35.60;18.33;;;1.50;99.90;;;;;;5132736;27;20163;-75
2021/12/12 08:59:29;;;;;;;37.33;19.00;;;1.50;99.90;;;;;;5133226;27;20168;-75
2021/12/12 09:01:59;;;;;;;35.80;19.33;;;1.40;99.90;;;;;;5104396;27;20204;-75
2021/12/12 09:04:35;;;;;;;36.47;20.50;;;1.40;99.90;;;;;;5119267;27;20173;-75
2021/12/12 09:07:11;;;;;;;31.70;19.77;;;1.60;99.90;;;;;;5098355;27;20606;-75
2021/12/12 09:09:41;;;;;;;34.47;18.77;;;1.60;99.90;;;;;;5110584;27;20188;-75
2021/12/12 09:12:12;;;;;;;36.73;19.87;;;1.70;99.90;;;;;;5124476;27;20184;-75
2021/12/12 09:14:50;;;;;;;35.27;18.80;;;1.80;99.90;;;;;;5102799;28;20202;-75
2021/12/12 09:17:23;;;;;;;33.27;18.23;;;1.80;99.90;;;;;;5100437;28;20190;-75
2021/12/12 09:19:56;;;;;;;35.87;19.40;;;1.80;99.90;;;;;;5093427;28;20173;-75
2021/12/12 09:22:28;;;;;;;31.50;17.50;;;1.80;99.90;;;;;;5096295;28;20215;-76
2021/12/12 09:25:35;;;;;;;35.03;19.20;;;1.90;99.90;;;;;;5098334;27;20180;-74
2021/12/12 09:28:37;;;;;;;34.97;18.27;;;1.90;99.90;;;;;;5120057;27;20190;-74
2021/12/12 09:31:08;;;;;;;29.70;17.67;;;2.00;99.90;;;;;;5114562;27;20238;-74
2021/12/12 09:33:44;;;;;;;33.10;18.07;;;2.10;99.90;;;;;;5101825;28;20201;-75
2021/12/12 09:36:35;;;;;;;34.67;19.80;;;2.20;99.90;;;;;;5112142;28;20548;-74
2021/12/12 09:39:13;;;;;;;38.03;19.07;;;2.20;99.90;;;;;;5106582;27;20646;-75
2021/12/12 09:42:09;;;;;;;34.37;18.13;;;2.20;99.90;;;;;;5093565;28;20213;-75
2021/12/12 09:45:11;;;;;;;32.70;19.10;;;2.30;99.90;;;;;;5115430;27;20189;-76
2021/12/12 09:48:03;;;;;;;33.50;18.07;;;2.20;99.90;;;;;;5126419;27;20576;-75
2021/12/12 09:51:15;;;;;;;31.80;17.60;;;2.20;99.90;;;;;;5102297;28;20206;-75
2021/12/12 09:54:15;;;;;;;29.33;17.50;;;2.30;99.90;;;;;;5106389;28;20196;-75
2021/12/12 09:57:06;;;;;;;37.17;20.37;;;2.30;99.90;;;;;;5106547;28;20521;-74
2021/12/12 10:00:09;;;;;;;32.90;18.27;;;2.30;99.90;;;;;;5123935;28;20177;-75
2021/12/12 10:02:52;;;;;;;37.87;19.70;;;2.40;99.90;;;;;;5120989;28;20226;-75
2021/12/12 10:05:24;;;;;;;34.13;18.40;;;2.40;99.90;;;;;;5129675;28;20185;-75
2021/12/12 10:07:57;;;;;;;35.03;18.63;;;2.30;99.90;;;;;;5096738;28;20706;-75
2021/12/12 10:10:43;;;;;;;39.20;19.20;;;2.30;99.90;;;;;;5118305;28;20216;-75
2021/12/12 10:13:39;;;;;;;34.73;20.23;;;2.40;99.90;;;;;;5131911;27;20255;-75
2021/12/12 10:16:16;;;;;;;33.63;19.80;;;2.40;99.90;;;;;;5102028;28;20188;-75
2021/12/12 10:18:59;;;;;;;35.93;18.80;;;2.40;99.90;;;;;;5107736;27;20187;-74
2021/12/12 10:21:31;;;;;;;46.03;20.17;;;2.50;99.90;;;;;;5095666;28;20210;-75
2021/12/12 10:24:23;;;;;;;36.27;19.57;;;2.40;99.90;;;;;;5127893;27;20259;-74
2021/12/12 10:27:13;;;;;;;37.23;19.33;;;2.50;99.90;;;;;;5108077;27;20626;-72
2021/12/12 10:29:56;;;;;;;32.37;17.57;;;2.40;99.90;;;;;;5125982;27;20225;-72
2021/12/12 10:32:26;;;;;;;36.27;19.47;;;2.50;99.90;;;;;;5115178;28;20183;-72
2021/12/12 10:35:10;;;;;;;37.57;18.40;;;2.50;99.90;;;;;;5095983;28;20174;-77
2021/12/12 10:38:01;;;;;;;33.37;17.77;;;2.60;99.90;;;;;;5115011;28;20656;-77
2021/12/12 10:40:36;;;;;;;36.00;18.33;;;2.60;99.90;;;;;;5115037;28;20246;-74
2021/12/12 10:43:06;;;;;;;32.60;18.30;;;2.60;99.90;;;;;;5114800;28;20268;-75
2021/12/12 10:45:43;;;;;;;37.00;19.13;;;2.70;99.90;;;;;;5094646;28;20694;-75
2021/12/12 10:48:15;;;;;;;36.43;19.03;;;2.70;99.90;;;;;;5072641;28;20178;-72
2021/12/12 10:51:04;;;;;;;33.10;18.23;;;2.80;99.90;;;;;;5108923;27;20599;-75
2021/12/12 10:53:51;;;;;;;37.30;18.73;;;2.80;99.90;;;;;;5079127;28;20182;-75
2021/12/12 10:56:30;;;;;;;35.87;18.77;;;2.90;99.90;;;;;;5096154;28;20167;-75
2021/12/12 10:59:01;;;;;;;34.33;17.83;;;2.90;99.90;;;;;;5117483;27;20197;-75
2021/12/12 11:01:32;;;;;;;34.87;18.17;;;2.80;99.90;;;;;;5097307;28;20281;-75
2021/12/12 11:04:09;;;;;;;32.67;19.17;;;2.90;99.90;;;;;;5096873;28;20163;-74
2021/12/12 11:06:49;;;;;;;37.40;19.23;;;3.00;99.90;;;;;;5116828;27;20233;-75
2021/12/12 11:09:30;;;;;;;34.70;18.60;;;3.00;99.90;;;;;;5117957;27;20178;-75
2021/12/12 11:12:10;;;;;;;29.03;16.90;;;3.00;99.90;;;;;;5117565;27;20249;-75
2021/12/12 11:14:46;;;;;;;36.13;18.60;;;3.00;99.90;;;;;;5120108;27;20195;-75
2021/12/12 11:17:19;;;;;;;35.93;18.67;;;3.00;99.90;;;;;;5119456;27;20234;-75
2021/12/12 11:20:04;;;;;;;31.30;17.50;;;2.90;99.90;;;;;;5122040;27;20183;-75
2021/12/12 11:22:34;;;;;;;30.50;17.87;;;2.90;99.90;;;;;;5099902;28;20183;-75
2021/12/12 11:25:13;;;;;;;37.23;19.30;;;2.90;99.90;;;;;;5106345;28;20181;-75
2021/12/12 11:27:45;;;;;;;37.27;20.27;;;2.90;99.90;;;;;;5125608;27;20169;-74
2021/12/12 11:30:42;;;;;;;35.90;18.97;;;2.90;99.90;;;;;;5135204;27;20213;-75
2021/12/12 11:33:11;;;;;;;36.73;19.23;;;2.90;99.90;;;;;;5133628;27;20204;-76
2021/12/12 11:35:39;;;;;;;36.13;19.67;;;3.00;99.90;;;;;;5134910;27;20522;-75
2021/12/12 11:38:16;;;;;;;45.23;20.63;;;3.00;99.90;;;;;;5134627;27;20802;-76
2021/12/12 11:40:53;;;;;;;41.33;20.97;;;3.00;99.90;;;;;;5114528;27;20196;-75
2021/12/12 11:43:51;;;;;;;38.20;20.13;;;3.10;99.90;;;;;;5135655;27;20575;-75
2021/12/12 11:46:25;;;;;;;33.40;19.27;;;3.00;99.90;;;;;;5134862;27;20161;-76
2021/12/12 11:48:55;;;;;;;34.00;19.23;;;3.00;99.90;;;;;;5116774;27;20214;-76
2021/12/12 11:51:38;;;;;;;36.87;19.47;;;3.20;99.90;;;;;;5092467;28;20230;-73
2021/12/12 11:54:28;;;;;;;34.80;18.37;;;3.20;99.90;;;;;;5106661;28;20390;-74
2021/12/12 11:57:13;;;;;;;34.27;19.50;;;3.00;99.90;;;;;;5114132;28;20595;-75
2021/12/12 12:00:18;;;;;;;36.20;19.13;;;3.10;99.90;;;;;;5114295;28;20173;-76
2021/12/12 12:02:54;;;;;;;35.03;18.40;;;3.00;99.90;;;;;;5116971;27;20612;-79
2021/12/12 12:05:44;;;;;;;36.20;19.20;;;3.00;99.90;;;;;;5127376;27;20229;-77
2021/12/12 12:08:34;;;;;;;37.90;19.77;;;3.10;99.90;;;;;;5113944;28;20170;-74
2021/12/12 12:11:50;;;;;;;34.13;17.67;;;3.10;99.90;;;;;;5092196;28;20529;-74
2021/12/12 12:14:40;;;;;;;34.20;17.27;;;3.10;99.90;;;;;;5107753;28;20161;-73
2021/12/12 12:17:12;;;;;;;35.13;19.13;;;3.10;99.90;;;;;;5113560;28;20166;-75
2021/12/12 12:19:56;;;;;;;37.30;19.13;;;3.10;99.90;;;;;;5113502;28;20195;-74
2021/12/12 12:22:45;;;;;;;32.50;17.43;;;3.30;99.90;;;;;;5084472;28;20190;-75
2021/12/12 12:25:28;;;;;;;35.20;17.50;;;3.30;99.90;;;;;;5106893;28;20166;-74
2021/12/12 12:28:07;;;;;;;30.43;16.73;;;3.30;99.90;;;;;;5094346;28;20174;-74
2021/12/12 12:31:11;;;;;;;33.13;18.40;;;3.40;99.90;;;;;;5091972;28;20204;-78
2021/12/12 12:34:14;;;;;;;31.93;18.53;;;3.40;99.90;;;;;;5113273;28;20166;-77
2021/12/12 12:37:17;;;;;;;30.37;16.23;;;3.60;99.90;;;;;;5092299;28;20176;-73
2021/12/12 12:40:20;;;;;;;31.50;18.13;;;3.70;99.90;;;;;;5092596;28;20174;-74
2021/12/12 12:43:23;;;;;;;31.97;17.03;;;3.60;99.90;;;;;;5112995;28;20575;-75
2021/12/12 12:46:07;;;;;;;24.50;14.97;;;3.60;99.90;;;;;;5098771;28;20177;-76
2021/12/12 12:48:44;;;;;;;29.17;16.67;;;3.60;99.90;;;;;;5094966;28;20183;-75
2021/12/12 12:51:35;;;;;;;32.83;17.63;;;3.70;99.90;;;;;;5112103;28;20219;-76
2021/12/12 12:54:19;;;;;;;28.50;15.43;;;3.70;99.90;;;;;;5115567;28;20211;-77
2021/12/12 12:56:57;;;;;;;26.30;14.40;;;3.60;99.90;;;;;;5097463;28;20595;-78
2021/12/12 12:59:48;;;;;;;31.17;15.93;;;3.60;99.90;;;;;;5117127;28;20161;-77
2021/12/12 13:02:38;;;;;;;27.43;14.80;;;3.40;99.90;;;;;;5112765;28;20338;-76
2021/12/12 13:05:06;;;;;;;26.03;14.83;;;3.40;99.90;;;;;;5112948;28;20640;-76
2021/12/12 13:07:41;;;;;;;29.47;16.13;;;3.30;99.90;;;;;;5086276;28;20173;-75
2021/12/12 13:10:19;;;;;;;27.47;15.50;;;3.30;99.90;;;;;;5110479;27;20171;-75
2021/12/12 13:13:12;;;;;;;29.20;15.37;;;3.30;99.90;;;;;;5112909;28;20244;-74
2021/12/12 13:16:07;;;;;;;25.97;13.73;;;3.20;99.90;;;;;;5111952;28;20173;-74
2021/12/12 13:18:49;;;;;;;30.93;16.20;;;3.30;99.90;;;;;;5087732;28;20198;-75
2021/12/12 13:21:34;;;;;;;25.73;14.50;;;3.30;99.90;;;;;;5112080;28;20205;-74
2021/12/12 13:24:40;;;;;;;25.50;14.63;;;3.30;99.90;;;;;;5090847;28;20175;-73
2021/12/12 13:27:31;;;;;;;28.70;15.17;;;3.30;99.90;;;;;;5104942;28;20177;-74
2021/12/12 13:30:04;;;;;;;26.27;14.13;;;3.30;99.90;;;;;;5112463;28;20170;-73